sensor_id;sensor_type;location;lat;lon;timestamp;temperature;humidity
827;DHT22;395;48.132;11.608;2023-02-27T00:01:26;2.40;1.00
827;DHT22;395;48.132;11.608;2023-02-27T00:03:53;2.40;1.00
827;DHT22;395;48.132;11.608;2023-02-27T00:06:19;2.40;1.00
827;DHT22;395;48.132;11.608;2023-02-27T00:08:45;2.40;1.00
827;DHT22;395;48.132;11.608;2023-02-27T00:11:10;2.40;1.00
827;DHT22;395;48.132;11.608;2023-02-27T00:13:36;2.40;1.00
827;DHT22;395;48.132;11.608;2023-02-27T00:16:02;2.40;1.00
827;DHT22;395;48.132;11.608;2023-02-27T00:18:27;2.30;1.00
827;DHT22;395;48.132;11.608;2023-02-27T00:20:54;2.30;1.00
827;DHT22;395;48.132;11.608;2023-02-27T00:23:19;2.40;1.00
827;DHT22;395;48.132;11.608;2023-02-27T00:25:45;2.30;1.00
827;DHT22;395;48.132;11.608;2023-02-27T00:28:11;2.30;1.00
827;DHT22;395;48.132;11.608;2023-02-27T00:30:37;2.30;1.00
827;DHT22;395;48.132;11.608;2023-02-27T00:33:03;2.30;1.00
827;DHT22;395;48.132;11.608;2023-02-27T00:35:28;2.30;1.00
827;DHT22;395;48.132;11.608;2023-02-27T00:37:54;2.20;1.00
827;DHT22;395;48.132;11.608;2023-02-27T00:40:20;2.30;1.00
827;DHT22;395;48.132;11.608;2023-02-27T00:42:46;2.30;1.00
827;DHT22;395;48.132;11.608;2023-02-27T00:45:13;2.30;1.00
827;DHT22;395;48.132;11.608;2023-02-27T00:47:39;2.30;1.00
827;DHT22;395;48.132;11.608;2023-02-27T00:50:05;2.30;1.00
827;DHT22;395;48.132;11.608;2023-02-27T00:52:30;2.30;1.00
827;DHT22;395;48.132;11.608;2023-02-27T00:54:58;2.20;1.00
827;DHT22;395;48.132;11.608;2023-02-27T00:57:24;2.30;1.00
827;DHT22;395;48.132;11.608;2023-02-27T00:59:49;2.20;1.00
827;DHT22;395;48.132;11.608;2023-02-27T01:02:15;2.30;1.00
827;DHT22;395;48.132;11.608;2023-02-27T01:04:41;2.20;1.00
827;DHT22;395;48.132;11.608;2023-02-27T01:07:07;2.20;1.00
827;DHT22;395;48.132;11.608;2023-02-27T01:09:33;2.10;1.00
827;DHT22;395;48.132;11.608;2023-02-27T01:11:59;2.20;1.00
827;DHT22;395;48.132;11.608;2023-02-27T01:14:25;2.20;1.00
827;DHT22;395;48.132;11.608;2023-02-27T01:16:51;2.10;1.00
827;DHT22;395;48.132;11.608;2023-02-27T01:19:17;2.10;1.00
827;DHT22;395;48.132;11.608;2023-02-27T01:21:43;2.10;1.00
827;DHT22;395;48.132;11.608;2023-02-27T01:24:09;2.20;1.00
827;DHT22;395;48.132;11.608;2023-02-27T01:26:35;2.20;1.00
827;DHT22;395;48.132;11.608;2023-02-27T01:29:01;2.20;1.00
827;DHT22;395;48.132;11.608;2023-02-27T01:31:27;2.20;1.00
827;DHT22;395;48.132;11.608;2023-02-27T01:33:52;2.20;1.00
827;DHT22;395;48.132;11.608;2023-02-27T01:36:18;2.10;1.00
827;DHT22;395;48.132;11.608;2023-02-27T01:38:44;2.10;1.00
827;DHT22;395;48.132;11.608;2023-02-27T01:41:10;2.10;1.00
827;DHT22;395;48.132;11.608;2023-02-27T01:43:53;2.00;1.00
827;DHT22;395;48.132;11.608;2023-02-27T01:46:19;2.10;1.00
827;DHT22;395;48.132;11.608;2023-02-27T01:48:45;2.00;1.00
827;DHT22;395;48.132;11.608;2023-02-27T01:51:17;2.10;1.00
827;DHT22;395;48.132;11.608;2023-02-27T01:53:47;2.10;1.00
827;DHT22;395;48.132;11.608;2023-02-27T01:56:26;2.10;1.00
827;DHT22;395;48.132;11.608;2023-02-27T01:58:58;2.10;1.00
827;DHT22;395;48.132;11.608;2023-02-27T02:01:25;2.10;1.00
827;DHT22;395;48.132;11.608;2023-02-27T02:04:00;2.10;1.00
827;DHT22;395;48.132;11.608;2023-02-27T02:06:29;2.10;1.00
827;DHT22;395;48.132;11.608;2023-02-27T02:08:56;2.50;1.00
827;DHT22;395;48.132;11.608;2023-02-27T02:11:25;1.90;1.00
827;DHT22;395;48.132;11.608;2023-02-27T02:13:56;1.90;1.00
827;DHT22;395;48.132;11.608;2023-02-27T02:16:43;1.90;1.00
827;DHT22;395;48.132;11.608;2023-02-27T02:34:02;2.00;1.00
827;DHT22;395;48.132;11.608;2023-02-27T02:39:21;1.90;1.00
827;DHT22;395;48.132;11.608;2023-02-27T02:42:44;1.90;1.00
827;DHT22;395;48.132;11.608;2023-02-27T02:45:01;1.90;1.00
827;DHT22;395;48.132;11.608;2023-02-27T02:47:58;1.90;1.00
827;DHT22;395;48.132;11.608;2023-02-27T02:50:44;1.80;1.00
827;DHT22;395;48.132;11.608;2023-02-27T02:53:17;1.80;1.00
827;DHT22;395;48.132;11.608;2023-02-27T02:55:50;1.80;1.00
827;DHT22;395;48.132;11.608;2023-02-27T02:58:25;1.80;1.00
827;DHT22;395;48.132;11.608;2023-02-27T03:01:08;1.80;1.00
827;DHT22;395;48.132;11.608;2023-02-27T03:03:43;1.80;1.00
827;DHT22;395;48.132;11.608;2023-02-27T03:06:22;1.80;1.00
827;DHT22;395;48.132;11.608;2023-02-27T03:09:02;1.90;1.00
827;DHT22;395;48.132;11.608;2023-02-27T03:11:33;1.90;1.00
827;DHT22;395;48.132;11.608;2023-02-27T03:16:52;1.90;1.00
827;DHT22;395;48.132;11.608;2023-02-27T03:19:29;1.90;1.00
827;DHT22;395;48.132;11.608;2023-02-27T03:22:08;1.90;1.00
827;DHT22;395;48.132;11.608;2023-02-27T03:24:42;1.90;1.00
827;DHT22;395;48.132;11.608;2023-02-27T03:27:10;1.90;1.00
827;DHT22;395;48.132;11.608;2023-02-27T03:29:55;2.00;1.00
827;DHT22;395;48.132;11.608;2023-02-27T03:32:56;2.00;1.00
827;DHT22;395;48.132;11.608;2023-02-27T03:35:50;2.00;1.00
827;DHT22;395;48.132;11.608;2023-02-27T03:38:38;2.00;1.00
827;DHT22;395;48.132;11.608;2023-02-27T03:44:12;2.00;1.00
827;DHT22;395;48.132;11.608;2023-02-27T03:46:40;2.00;1.00
827;DHT22;395;48.132;11.608;2023-02-27T03:49:06;2.00;1.00
827;DHT22;395;48.132;11.608;2023-02-27T03:51:33;2.00;1.00
827;DHT22;395;48.132;11.608;2023-02-27T03:54:08;2.10;1.00
827;DHT22;395;48.132;11.608;2023-02-27T03:56:49;2.10;1.00
827;DHT22;395;48.132;11.608;2023-02-27T03:59:17;2.10;1.00
827;DHT22;395;48.132;11.608;2023-02-27T04:01:43;2.10;1.00
827;DHT22;395;48.132;11.608;2023-02-27T04:04:14;2.10;1.00
827;DHT22;395;48.132;11.608;2023-02-27T04:06:46;2.10;1.00
827;DHT22;395;48.132;11.608;2023-02-27T04:20:58;2.10;1.00
827;DHT22;395;48.132;11.608;2023-02-27T04:34:35;2.10;1.00
827;DHT22;395;48.132;11.608;2023-02-27T04:37:22;2.10;1.00
827;DHT22;395;48.132;11.608;2023-02-27T04:39:55;2.20;1.00
827;DHT22;395;48.132;11.608;2023-02-27T04:42:26;2.10;1.00
827;DHT22;395;48.132;11.608;2023-02-27T04:44:56;2.20;1.00
827;DHT22;395;48.132;11.608;2023-02-27T04:47:24;2.20;1.00
827;DHT22;395;48.132;11.608;2023-02-27T04:50:00;2.20;1.00
827;DHT22;395;48.132;11.608;2023-02-27T04:52:33;2.10;1.00
827;DHT22;395;48.132;11.608;2023-02-27T04:55:05;2.10;1.00
827;DHT22;395;48.132;11.608;2023-02-27T04:58:02;2.20;1.00
827;DHT22;395;48.132;11.608;2023-02-27T05:00:30;2.10;1.00
827;DHT22;395;48.132;11.608;2023-02-27T05:03:02;2.10;1.00
827;DHT22;395;48.132;11.608;2023-02-27T05:05:32;2.10;1.00
827;DHT22;395;48.132;11.608;2023-02-27T05:08:02;2.10;1.00
827;DHT22;395;48.132;11.608;2023-02-27T05:10:35;2.30;1.00
827;DHT22;395;48.132;11.608;2023-02-27T05:13:27;2.10;1.00
827;DHT22;395;48.132;11.608;2023-02-27T05:15:59;2.20;1.00
827;DHT22;395;48.132;11.608;2023-02-27T05:18:27;2.10;1.00
827;DHT22;395;48.132;11.608;2023-02-27T05:29:50;2.00;1.00
827;DHT22;395;48.132;11.608;2023-02-27T05:32:47;2.00;1.00
827;DHT22;395;48.132;11.608;2023-02-27T05:35:30;2.00;1.00
827;DHT22;395;48.132;11.608;2023-02-27T05:38:03;2.00;1.00
827;DHT22;395;48.132;11.608;2023-02-27T05:40:34;2.00;1.00
827;DHT22;395;48.132;11.608;2023-02-27T05:43:07;2.00;1.00
827;DHT22;395;48.132;11.608;2023-02-27T05:45:36;2.00;1.00
827;DHT22;395;48.132;11.608;2023-02-27T05:48:08;2.00;1.00
827;DHT22;395;48.132;11.608;2023-02-27T05:50:37;2.00;1.00
827;DHT22;395;48.132;11.608;2023-02-27T05:53:08;2.00;1.00
827;DHT22;395;48.132;11.608;2023-02-27T05:55:42;2.00;1.00
827;DHT22;395;48.132;11.608;2023-02-27T06:01:03;1.90;1.00
827;DHT22;395;48.132;11.608;2023-02-27T06:03:31;1.90;1.00
827;DHT22;395;48.132;11.608;2023-02-27T06:06:00;1.90;1.00
827;DHT22;395;48.132;11.608;2023-02-27T06:08:26;1.90;1.00
827;DHT22;395;48.132;11.608;2023-02-27T06:10:52;1.90;1.00
827;DHT22;395;48.132;11.608;2023-02-27T06:13:20;1.90;1.00
827;DHT22;395;48.132;11.608;2023-02-27T06:15:46;1.80;1.00
827;DHT22;395;48.132;11.608;2023-02-27T06:18:13;1.90;1.00
827;DHT22;395;48.132;11.608;2023-02-27T06:20:41;1.80;1.00
827;DHT22;395;48.132;11.608;2023-02-27T06:23:07;1.80;1.00
827;DHT22;395;48.132;11.608;2023-02-27T06:25:33;1.80;1.00
827;DHT22;395;48.132;11.608;2023-02-27T06:27:59;1.80;1.00
827;DHT22;395;48.132;11.608;2023-02-27T06:30:25;1.70;1.00
827;DHT22;395;48.132;11.608;2023-02-27T06:32:50;1.70;1.00
827;DHT22;395;48.132;11.608;2023-02-27T06:35:16;1.70;1.00
827;DHT22;395;48.132;11.608;2023-02-27T06:37:42;1.80;1.00
827;DHT22;395;48.132;11.608;2023-02-27T06:40:08;1.70;1.00
827;DHT22;395;48.132;11.608;2023-02-27T06:42:37;1.80;1.00
827;DHT22;395;48.132;11.608;2023-02-27T06:45:02;1.80;1.00
827;DHT22;395;48.132;11.608;2023-02-27T06:47:28;1.80;1.00
827;DHT22;395;48.132;11.608;2023-02-27T06:49:54;1.90;1.00
827;DHT22;395;48.132;11.608;2023-02-27T06:52:19;1.90;1.00
827;DHT22;395;48.132;11.608;2023-02-27T06:54:45;1.90;1.00
827;DHT22;395;48.132;11.608;2023-02-27T06:57:11;1.90;1.00
827;DHT22;395;48.132;11.608;2023-02-27T06:59:36;1.90;1.00
827;DHT22;395;48.132;11.608;2023-02-27T07:02:02;1.90;1.00
827;DHT22;395;48.132;11.608;2023-02-27T07:04:28;1.90;1.00
827;DHT22;395;48.132;11.608;2023-02-27T07:06:53;1.90;1.00
827;DHT22;395;48.132;11.608;2023-02-27T07:09:19;1.90;1.00
827;DHT22;395;48.132;11.608;2023-02-27T07:11:45;1.90;1.00
827;DHT22;395;48.132;11.608;2023-02-27T07:14:10;2.00;1.00
827;DHT22;395;48.132;11.608;2023-02-27T07:16:37;1.90;1.00
827;DHT22;395;48.132;11.608;2023-02-27T07:19:02;1.90;1.00
827;DHT22;395;48.132;11.608;2023-02-27T07:21:28;1.90;1.00
827;DHT22;395;48.132;11.608;2023-02-27T07:23:53;1.90;1.00
827;DHT22;395;48.132;11.608;2023-02-27T07:26:19;2.00;1.00
827;DHT22;395;48.132;11.608;2023-02-27T07:28:45;2.00;1.00
827;DHT22;395;48.132;11.608;2023-02-27T07:31:11;2.00;1.00
827;DHT22;395;48.132;11.608;2023-02-27T07:33:36;2.10;1.00
827;DHT22;395;48.132;11.608;2023-02-27T07:36:02;2.10;1.00
827;DHT22;395;48.132;11.608;2023-02-27T07:38:28;2.10;1.00
827;DHT22;395;48.132;11.608;2023-02-27T07:40:53;2.10;1.00
827;DHT22;395;48.132;11.608;2023-02-27T07:43:19;2.10;1.00
827;DHT22;395;48.132;11.608;2023-02-27T07:45:45;2.00;1.00
827;DHT22;395;48.132;11.608;2023-02-27T07:48:10;2.10;1.00
827;DHT22;395;48.132;11.608;2023-02-27T07:50:36;2.10;1.00
827;DHT22;395;48.132;11.608;2023-02-27T07:53:02;2.10;1.00
827;DHT22;395;48.132;11.608;2023-02-27T07:55:29;2.20;1.00
827;DHT22;395;48.132;11.608;2023-02-27T07:57:55;2.20;1.00
827;DHT22;395;48.132;11.608;2023-02-27T08:00:21;2.20;1.00
827;DHT22;395;48.132;11.608;2023-02-27T08:02:46;2.20;1.00
827;DHT22;395;48.132;11.608;2023-02-27T08:05:12;2.30;1.00
827;DHT22;395;48.132;11.608;2023-02-27T08:07:38;2.30;1.00
827;DHT22;395;48.132;11.608;2023-02-27T08:10:04;2.30;1.00
827;DHT22;395;48.132;11.608;2023-02-27T08:12:30;2.30;1.00
827;DHT22;395;48.132;11.608;2023-02-27T08:14:55;2.30;1.00
827;DHT22;395;48.132;11.608;2023-02-27T08:17:21;2.30;1.00
827;DHT22;395;48.132;11.608;2023-02-27T08:19:47;2.30;1.00
827;DHT22;395;48.132;11.608;2023-02-27T08:22:12;2.20;1.00
827;DHT22;395;48.132;11.608;2023-02-27T08:24:38;2.20;1.00
827;DHT22;395;48.132;11.608;2023-02-27T08:27:05;2.10;1.00
827;DHT22;395;48.132;11.608;2023-02-27T08:29:31;2.20;1.00
827;DHT22;395;48.132;11.608;2023-02-27T08:31:58;2.30;1.00
827;DHT22;395;48.132;11.608;2023-02-27T08:34:23;2.30;1.00
827;DHT22;395;48.132;11.608;2023-02-27T08:36:50;2.40;1.00
827;DHT22;395;48.132;11.608;2023-02-27T08:39:17;2.30;1.00
827;DHT22;395;48.132;11.608;2023-02-27T08:41:43;2.30;1.00
827;DHT22;395;48.132;11.608;2023-02-27T08:44:12;2.30;1.00
827;DHT22;395;48.132;11.608;2023-02-27T08:46:37;2.40;1.00
827;DHT22;395;48.132;11.608;2023-02-27T08:49:03;2.40;1.00
827;DHT22;395;48.132;11.608;2023-02-27T08:51:29;2.40;1.00
827;DHT22;395;48.132;11.608;2023-02-27T08:53:55;2.50;1.00
827;DHT22;395;48.132;11.608;2023-02-27T08:56:26;2.40;1.00
827;DHT22;395;48.132;11.608;2023-02-27T08:58:53;2.50;1.00
827;DHT22;395;48.132;11.608;2023-02-27T09:01:19;2.40;1.00
827;DHT22;395;48.132;11.608;2023-02-27T09:03:45;2.50;1.00
827;DHT22;395;48.132;11.608;2023-02-27T09:06:11;2.40;1.00
827;DHT22;395;48.132;11.608;2023-02-27T09:08:37;2.30;1.00
827;DHT22;395;48.132;11.608;2023-02-27T09:11:03;2.30;1.00
827;DHT22;395;48.132;11.608;2023-02-27T09:13:29;2.30;1.00
827;DHT22;395;48.132;11.608;2023-02-27T09:15:55;2.30;1.00
827;DHT22;395;48.132;11.608;2023-02-27T09:18:21;2.40;1.00
827;DHT22;395;48.132;11.608;2023-02-27T09:20:50;2.50;1.00
827;DHT22;395;48.132;11.608;2023-02-27T09:23:16;2.50;1.00
827;DHT22;395;48.132;11.608;2023-02-27T09:25:42;2.60;1.00
827;DHT22;395;48.132;11.608;2023-02-27T09:28:08;2.60;1.00
827;DHT22;395;48.132;11.608;2023-02-27T09:30:34;2.60;1.00
827;DHT22;395;48.132;11.608;2023-02-27T09:33:00;2.70;1.00
827;DHT22;395;48.132;11.608;2023-02-27T09:35:26;2.60;1.00
827;DHT22;395;48.132;11.608;2023-02-27T09:37:51;2.70;1.00
827;DHT22;395;48.132;11.608;2023-02-27T09:40:26;2.70;1.00
827;DHT22;395;48.132;11.608;2023-02-27T09:42:55;2.70;1.00
827;DHT22;395;48.132;11.608;2023-02-27T09:45:30;2.60;1.00
827;DHT22;395;48.132;11.608;2023-02-27T09:51:00;2.70;1.00
827;DHT22;395;48.132;11.608;2023-02-27T09:53:34;2.70;1.00
827;DHT22;395;48.132;11.608;2023-02-27T10:04:42;2.90;1.00
827;DHT22;395;48.132;11.608;2023-02-27T10:10:12;2.80;1.00
827;DHT22;395;48.132;11.608;2023-02-27T10:15:47;3.00;1.00
827;DHT22;395;48.132;11.608;2023-02-27T10:18:34;3.00;1.00
827;DHT22;395;48.132;11.608;2023-02-27T10:21:09;3.10;1.00
827;DHT22;395;48.132;11.608;2023-02-27T10:23:44;3.20;1.00
827;DHT22;395;48.132;11.608;2023-02-27T10:26:39;3.10;1.00
827;DHT22;395;48.132;11.608;2023-02-27T10:34:27;3.30;1.00
827;DHT22;395;48.132;11.608;2023-02-27T10:36:54;3.20;1.00
827;DHT22;395;48.132;11.608;2023-02-27T10:39:21;3.30;1.00
827;DHT22;395;48.132;11.608;2023-02-27T10:41:49;3.20;1.00
827;DHT22;395;48.132;11.608;2023-02-27T10:44:15;3.20;1.00
827;DHT22;395;48.132;11.608;2023-02-27T10:46:43;3.20;1.00
827;DHT22;395;48.132;11.608;2023-02-27T10:49:20;3.00;1.00
827;DHT22;395;48.132;11.608;2023-02-27T10:52:02;3.00;1.00
827;DHT22;395;48.132;11.608;2023-02-27T10:54:28;3.10;1.00
827;DHT22;395;48.132;11.608;2023-02-27T10:56:56;3.10;1.00
827;DHT22;395;48.132;11.608;2023-02-27T10:59:37;3.00;1.00
827;DHT22;395;48.132;11.608;2023-02-27T11:02:07;3.10;1.00
827;DHT22;395;48.132;11.608;2023-02-27T11:04:56;3.10;1.00
827;DHT22;395;48.132;11.608;2023-02-27T11:07:41;3.00;1.00
827;DHT22;395;48.132;11.608;2023-02-27T11:12:39;3.00;1.00
827;DHT22;395;48.132;11.608;2023-02-27T11:17:40;3.10;1.00
827;DHT22;395;48.132;11.608;2023-02-27T11:23:26;2.90;1.00
827;DHT22;395;48.132;11.608;2023-02-27T11:26:10;3.10;1.00
827;DHT22;395;48.132;11.608;2023-02-27T11:28:39;3.00;1.00
827;DHT22;395;48.132;11.608;2023-02-27T11:31:14;2.90;1.00
827;DHT22;395;48.132;11.608;2023-02-27T11:33:53;3.10;1.00
827;DHT22;395;48.132;11.608;2023-02-27T11:36:19;3.10;1.00
827;DHT22;395;48.132;11.608;2023-02-27T11:38:54;3.10;1.00
827;DHT22;395;48.132;11.608;2023-02-27T11:41:29;3.00;1.00
827;DHT22;395;48.132;11.608;2023-02-27T11:43:57;3.00;1.00
827;DHT22;395;48.132;11.608;2023-02-27T11:46:25;2.90;1.00
827;DHT22;395;48.132;11.608;2023-02-27T11:49:08;2.80;1.00
827;DHT22;395;48.132;11.608;2023-02-27T11:52:43;3.00;1.00
827;DHT22;395;48.132;11.608;2023-02-27T11:54:49;3.10;1.00
827;DHT22;395;48.132;11.608;2023-02-27T11:57:35;3.10;1.00
827;DHT22;395;48.132;11.608;2023-02-27T12:00:22;3.00;1.00
827;DHT22;395;48.132;11.608;2023-02-27T12:05:32;3.00;1.00
827;DHT22;395;48.132;11.608;2023-02-27T12:13:30;3.00;1.00
827;DHT22;395;48.132;11.608;2023-02-27T12:18:52;2.90;1.00
827;DHT22;395;48.132;11.608;2023-02-27T12:21:40;3.10;1.00
827;DHT22;395;48.132;11.608;2023-02-27T12:24:21;2.90;1.00
827;DHT22;395;48.132;11.608;2023-02-27T12:26:54;3.00;1.00
827;DHT22;395;48.132;11.608;2023-02-27T12:29:38;3.00;1.00
827;DHT22;395;48.132;11.608;2023-02-27T12:32:22;2.90;1.00
827;DHT22;395;48.132;11.608;2023-02-27T12:34:55;2.90;1.00
827;DHT22;395;48.132;11.608;2023-02-27T12:37:25;2.90;1.00
827;DHT22;395;48.132;11.608;2023-02-27T12:39:54;2.90;1.00
827;DHT22;395;48.132;11.608;2023-02-27T12:56:19;3.30;1.00
827;DHT22;395;48.132;11.608;2023-02-27T12:59:08;3.30;1.00
827;DHT22;395;48.132;11.608;2023-02-27T13:01:47;3.20;1.00
827;DHT22;395;48.132;11.608;2023-02-27T13:07:01;3.30;1.00
827;DHT22;395;48.132;11.608;2023-02-27T13:09:48;3.40;1.00
827;DHT22;395;48.132;11.608;2023-02-27T13:12:43;3.40;1.00
827;DHT22;395;48.132;11.608;2023-02-27T13:15:27;3.50;1.00
827;DHT22;395;48.132;11.608;2023-02-27T13:18:02;3.50;1.00
827;DHT22;395;48.132;11.608;2023-02-27T13:20:42;3.50;1.00
827;DHT22;395;48.132;11.608;2023-02-27T13:23:25;3.50;1.00
827;DHT22;395;48.132;11.608;2023-02-27T13:25:55;3.50;1.00
827;DHT22;395;48.132;11.608;2023-02-27T13:28:25;3.50;1.00
827;DHT22;395;48.132;11.608;2023-02-27T13:30:56;3.50;1.00
827;DHT22;395;48.132;11.608;2023-02-27T13:36:37;3.60;1.00
827;DHT22;395;48.132;11.608;2023-02-27T13:39:37;3.50;1.00
827;DHT22;395;48.132;11.608;2023-02-27T13:44:54;3.40;1.00
827;DHT22;395;48.132;11.608;2023-02-27T13:52:33;3.40;1.00
827;DHT22;395;48.132;11.608;2023-02-27T13:55:00;3.50;1.00
827;DHT22;395;48.132;11.608;2023-02-27T13:57:35;3.50;1.00
827;DHT22;395;48.132;11.608;2023-02-27T14:00:15;3.60;1.00
827;DHT22;395;48.132;11.608;2023-02-27T14:02:56;3.70;1.00
827;DHT22;395;48.132;11.608;2023-02-27T14:18:55;3.80;1.00
827;DHT22;395;48.132;11.608;2023-02-27T14:24:17;3.80;1.00
827;DHT22;395;48.132;11.608;2023-02-27T14:26:43;3.70;1.00
827;DHT22;395;48.132;11.608;2023-02-27T14:29:20;3.80;1.00
827;DHT22;395;48.132;11.608;2023-02-27T14:31:47;3.80;1.00
827;DHT22;395;48.132;11.608;2023-02-27T14:34:16;3.90;1.00
827;DHT22;395;48.132;11.608;2023-02-27T14:36:45;3.80;1.00
827;DHT22;395;48.132;11.608;2023-02-27T14:39:32;3.80;1.00
827;DHT22;395;48.132;11.608;2023-02-27T14:44:42;3.80;1.00
827;DHT22;395;48.132;11.608;2023-02-27T14:47:18;3.80;1.00
827;DHT22;395;48.132;11.608;2023-02-27T14:49:47;3.60;1.00
827;DHT22;395;48.132;11.608;2023-02-27T14:52:28;3.70;1.00
827;DHT22;395;48.132;11.608;2023-02-27T14:55:25;3.70;1.00
827;DHT22;395;48.132;11.608;2023-02-27T14:57:57;3.80;1.00
827;DHT22;395;48.132;11.608;2023-02-27T15:03:29;3.70;1.00
827;DHT22;395;48.132;11.608;2023-02-27T15:05:59;3.60;1.00
827;DHT22;395;48.132;11.608;2023-02-27T15:08:29;3.60;1.00
827;DHT22;395;48.132;11.608;2023-02-27T15:10:57;3.60;1.00
827;DHT22;395;48.132;11.608;2023-02-27T15:13:30;3.60;1.00
827;DHT22;395;48.132;11.608;2023-02-27T15:16:29;3.60;1.00
827;DHT22;395;48.132;11.608;2023-02-27T15:21:26;3.50;1.00
827;DHT22;395;48.132;11.608;2023-02-27T15:24:06;3.60;1.00
827;DHT22;395;48.132;11.608;2023-02-27T15:26:38;3.50;1.00
827;DHT22;395;48.132;11.608;2023-02-27T15:29:05;3.60;1.00
827;DHT22;395;48.132;11.608;2023-02-27T15:31:32;3.50;1.00
827;DHT22;395;48.132;11.608;2023-02-27T15:34:00;3.50;1.00
827;DHT22;395;48.132;11.608;2023-02-27T15:36:32;3.40;1.00
827;DHT22;395;48.132;11.608;2023-02-27T15:39:15;3.40;1.00
827;DHT22;395;48.132;11.608;2023-02-27T15:41:44;3.40;1.00
827;DHT22;395;48.132;11.608;2023-02-27T15:44:12;3.50;1.00
827;DHT22;395;48.132;11.608;2023-02-27T15:46:40;3.50;1.00
827;DHT22;395;48.132;11.608;2023-02-27T15:49:14;3.40;1.00
827;DHT22;395;48.132;11.608;2023-02-27T15:51:40;3.50;1.00
827;DHT22;395;48.132;11.608;2023-02-27T15:54:08;3.50;1.00
827;DHT22;395;48.132;11.608;2023-02-27T15:56:36;3.50;1.00
827;DHT22;395;48.132;11.608;2023-02-27T15:59:03;3.50;1.00
827;DHT22;395;48.132;11.608;2023-02-27T16:01:30;3.40;1.00
827;DHT22;395;48.132;11.608;2023-02-27T16:04:16;3.30;1.00
827;DHT22;395;48.132;11.608;2023-02-27T16:06:48;3.30;1.00
827;DHT22;395;48.132;11.608;2023-02-27T16:09:33;3.30;1.00
827;DHT22;395;48.132;11.608;2023-02-27T16:14:42;3.20;1.00
827;DHT22;395;48.132;11.608;2023-02-27T16:17:28;3.30;1.00
827;DHT22;395;48.132;11.608;2023-02-27T16:19:58;3.30;1.00
827;DHT22;395;48.132;11.608;2023-02-27T16:22:24;3.30;1.00
827;DHT22;395;48.132;11.608;2023-02-27T16:24:51;3.30;1.00
827;DHT22;395;48.132;11.608;2023-02-27T16:27:26;3.30;1.00
827;DHT22;395;48.132;11.608;2023-02-27T16:29:56;3.20;1.00
827;DHT22;395;48.132;11.608;2023-02-27T16:32:57;3.10;1.00
827;DHT22;395;48.132;11.608;2023-02-27T16:35:24;3.10;1.00
827;DHT22;395;48.132;11.608;2023-02-27T16:37:50;3.00;1.00
827;DHT22;395;48.132;11.608;2023-02-27T16:40:20;3.00;1.00
827;DHT22;395;48.132;11.608;2023-02-27T16:42:47;3.00;1.00
827;DHT22;395;48.132;11.608;2023-02-27T16:45:16;3.10;1.00
827;DHT22;395;48.132;11.608;2023-02-27T16:47:42;2.90;1.00
827;DHT22;395;48.132;11.608;2023-02-27T16:50:14;2.90;1.00
827;DHT22;395;48.132;11.608;2023-02-27T16:52:41;2.90;1.00
827;DHT22;395;48.132;11.608;2023-02-27T16:55:08;2.80;1.00
827;DHT22;395;48.132;11.608;2023-02-27T16:57:34;2.80;1.00
827;DHT22;395;48.132;11.608;2023-02-27T17:00:00;2.90;1.00
827;DHT22;395;48.132;11.608;2023-02-27T17:02:25;2.90;1.00
827;DHT22;395;48.132;11.608;2023-02-27T17:04:51;2.80;1.00
827;DHT22;395;48.132;11.608;2023-02-27T17:07:17;2.80;1.00
827;DHT22;395;48.132;11.608;2023-02-27T17:09:44;2.80;1.00
827;DHT22;395;48.132;11.608;2023-02-27T17:12:10;2.90;1.00
827;DHT22;395;48.132;11.608;2023-02-27T17:14:36;2.90;1.00
827;DHT22;395;48.132;11.608;2023-02-27T17:17:03;2.80;1.00
827;DHT22;395;48.132;11.608;2023-02-27T17:19:28;2.90;1.00
827;DHT22;395;48.132;11.608;2023-02-27T17:21:54;2.90;1.00
827;DHT22;395;48.132;11.608;2023-02-27T17:24:20;2.90;1.00
827;DHT22;395;48.132;11.608;2023-02-27T17:26:45;2.90;1.00
827;DHT22;395;48.132;11.608;2023-02-27T17:29:11;2.90;1.00
827;DHT22;395;48.132;11.608;2023-02-27T17:31:39;2.90;1.00
827;DHT22;395;48.132;11.608;2023-02-27T17:34:07;2.90;1.00
827;DHT22;395;48.132;11.608;2023-02-27T17:36:33;2.80;1.00
827;DHT22;395;48.132;11.608;2023-02-27T17:39:00;2.80;1.00
827;DHT22;395;48.132;11.608;2023-02-27T17:41:27;2.70;1.00
827;DHT22;395;48.132;11.608;2023-02-27T17:43:54;2.70;1.00
827;DHT22;395;48.132;11.608;2023-02-27T17:46:22;2.70;1.00
827;DHT22;395;48.132;11.608;2023-02-27T17:48:48;2.80;1.00
827;DHT22;395;48.132;11.608;2023-02-27T17:51:16;2.70;1.00
827;DHT22;395;48.132;11.608;2023-02-27T17:53:42;2.70;1.00
827;DHT22;395;48.132;11.608;2023-02-27T17:56:09;2.70;1.00
827;DHT22;395;48.132;11.608;2023-02-27T17:58:35;2.70;1.00
827;DHT22;395;48.132;11.608;2023-02-27T18:01:09;2.70;1.00
827;DHT22;395;48.132;11.608;2023-02-27T18:03:35;2.70;1.00
827;DHT22;395;48.132;11.608;2023-02-27T18:06:02;2.70;1.00
827;DHT22;395;48.132;11.608;2023-02-27T18:08:28;2.70;1.00
827;DHT22;395;48.132;11.608;2023-02-27T18:10:54;2.70;1.00
827;DHT22;395;48.132;11.608;2023-02-27T18:13:20;2.80;1.00
827;DHT22;395;48.132;11.608;2023-02-27T18:15:50;2.80;1.00
827;DHT22;395;48.132;11.608;2023-02-27T18:18:17;2.80;1.00
827;DHT22;395;48.132;11.608;2023-02-27T18:20:43;2.70;1.00
827;DHT22;395;48.132;11.608;2023-02-27T18:23:09;2.60;1.00
827;DHT22;395;48.132;11.608;2023-02-27T18:25:35;2.70;1.00
827;DHT22;395;48.132;11.608;2023-02-27T18:28:01;2.70;1.00
827;DHT22;395;48.132;11.608;2023-02-27T18:30:31;2.60;1.00
827;DHT22;395;48.132;11.608;2023-02-27T18:33:00;2.60;1.00
827;DHT22;395;48.132;11.608;2023-02-27T18:35:26;2.60;1.00
827;DHT22;395;48.132;11.608;2023-02-27T18:37:52;2.60;1.00
827;DHT22;395;48.132;11.608;2023-02-27T18:40:17;2.60;1.00
827;DHT22;395;48.132;11.608;2023-02-27T18:42:47;2.50;1.00
827;DHT22;395;48.132;11.608;2023-02-27T18:45:13;2.60;1.00
827;DHT22;395;48.132;11.608;2023-02-27T18:47:38;2.50;1.00
827;DHT22;395;48.132;11.608;2023-02-27T18:50:04;2.50;1.00
827;DHT22;395;48.132;11.608;2023-02-27T18:52:30;2.50;1.00
827;DHT22;395;48.132;11.608;2023-02-27T18:54:56;2.50;1.00
827;DHT22;395;48.132;11.608;2023-02-27T18:57:22;2.40;1.00
827;DHT22;395;48.132;11.608;2023-02-27T18:59:48;2.40;1.00
827;DHT22;395;48.132;11.608;2023-02-27T19:02:16;2.40;1.00
827;DHT22;395;48.132;11.608;2023-02-27T19:04:45;2.40;1.00
827;DHT22;395;48.132;11.608;2023-02-27T19:07:12;2.40;1.00
827;DHT22;395;48.132;11.608;2023-02-27T19:09:38;2.40;1.00
827;DHT22;395;48.132;11.608;2023-02-27T19:12:04;2.40;1.00
827;DHT22;395;48.132;11.608;2023-02-27T19:14:29;2.40;1.00
827;DHT22;395;48.132;11.608;2023-02-27T19:16:55;2.40;1.00
827;DHT22;395;48.132;11.608;2023-02-27T19:19:25;2.40;1.00
827;DHT22;395;48.132;11.608;2023-02-27T19:21:53;2.40;1.00
827;DHT22;395;48.132;11.608;2023-02-27T19:24:19;2.40;1.00
827;DHT22;395;48.132;11.608;2023-02-27T19:26:45;2.40;1.00
827;DHT22;395;48.132;11.608;2023-02-27T19:29:12;2.40;1.00
827;DHT22;395;48.132;11.608;2023-02-27T19:31:38;2.40;1.00
827;DHT22;395;48.132;11.608;2023-02-27T19:34:04;2.40;1.00
827;DHT22;395;48.132;11.608;2023-02-27T19:36:30;2.30;1.00
827;DHT22;395;48.132;11.608;2023-02-27T19:38:56;2.30;1.00
827;DHT22;395;48.132;11.608;2023-02-27T19:41:23;2.30;1.00
827;DHT22;395;48.132;11.608;2023-02-27T19:43:49;2.40;1.00
827;DHT22;395;48.132;11.608;2023-02-27T19:46:18;2.40;1.00
827;DHT22;395;48.132;11.608;2023-02-27T19:48:44;2.30;1.00